Weather at 14400 Ranch Airport [CLOSED]

Public forecast

Using degrees Fahrenheit for public forecast. Weather courtesy of forecast.io.

Closest aviation weather report (METAR) to 14400 Ranch Airport

Closest report is San Angelo Regional Mathis Field, 23.9 nm (44.3 km) S. Retrieved 2021/07/24 22:51 UTC (36 minutes ago):

KSJT 242251Z VRB03KT 10SM CLR 37/16 A2995 RMK AO2 SLP113 T03720156

Closest aviation forecast (TAF) to 14400 Ranch Airport

Closest forecast is San Angelo Regional Mathis Field, 23.9 nm (44.3 km) S. Retrieved 2021/07/24 18:22 UTC (5 hours ago):

TAF KSJT 241720Z 2418/2518 18012G20KT P6SM FEW050 FM250200 15008KT P6SM SKC